Time;durP1;ratioP1;P1;durP2;ratioP2;P2;SDS_P1;SDS_P2;PMS_P1;PMS_P2;Temp;Humidity;BMP_temperature;BMP_pressure;BME280_temperature;BME280_humidity;BME280_pressure;Samples;Min_cycle;Max_cycle;Signal;HPM_P1;HPM_P2
2021/10/08 00:01:06;;;;;;;22.93;9.53;;;5.30;1.00;;;;;;4419017;28;656512;-66
2021/10/08 00:03:53;;;;;;;39.80;10.23;;;5.20;1.00;;;;;;4445211;28;656524;-65
2021/10/08 00:06:42;;;;;;;25.57;10.27;;;5.20;1.00;;;;;;4428365;28;656624;-67
2021/10/08 00:09:31;;;;;;;21.43;9.67;;;5.20;1.00;;;;;;4437972;28;656855;-66
2021/10/08 00:12:18;;;;;;;38.20;10.50;;;5.10;1.00;;;;;;4446866;28;655666;-65
2021/10/08 00:15:06;;;;;;;33.97;10.10;;;5.10;1.00;;;;;;4456602;28;656913;-66
2021/10/08 00:17:54;;;;;;;31.53;10.23;;;5.10;1.00;;;;;;4434610;28;656981;-67
2021/10/08 00:20:41;;;;;;;28.40;10.10;;;5.10;1.00;;;;;;4421275;28;656571;-66
2021/10/08 00:23:30;;;;;;;39.07;10.37;;;5.10;1.00;;;;;;4443926;28;657418;-66
2021/10/08 00:26:18;;;;;;;30.37;9.53;;;5.10;1.00;;;;;;4422106;28;657997;-65
2021/10/08 00:29:05;;;;;;;25.70;10.40;;;5.10;1.00;;;;;;4426967;28;655822;-67
2021/10/08 00:31:53;;;;;;;33.60;10.60;;;5.00;1.00;;;;;;4436934;28;657490;-66
2021/10/08 00:34:41;;;;;;;24.70;9.43;;;5.00;1.00;;;;;;4424399;28;656647;-66
2021/10/08 00:37:28;;;;;;;25.13;9.80;;;5.00;1.00;;;;;;4446486;28;655966;-66
2021/10/08 00:40:17;;;;;;;32.37;10.10;;;5.00;1.00;;;;;;4421831;28;655351;-66
2021/10/08 00:43:05;;;;;;;23.00;9.60;;;5.00;1.00;;;;;;4436947;28;656476;-65
2021/10/08 00:45:52;;;;;;;27.73;10.40;;;5.00;1.00;;;;;;4423857;28;656813;-66
2021/10/08 00:48:40;;;;;;;32.87;10.53;;;4.90;1.00;;;;;;4443846;28;656974;-65
2021/10/08 00:51:28;;;;;;;32.73;10.67;;;4.90;1.00;;;;;;4424210;28;657802;-66
2021/10/08 00:54:15;;;;;;;29.07;9.97;;;4.90;1.00;;;;;;4414820;28;656982;-67
2021/10/08 00:57:05;;;;;;;21.30;9.93;;;4.90;1.00;;;;;;4432312;28;657670;-66
2021/10/08 00:59:55;;;;;;;24.07;10.00;;;4.90;1.00;;;;;;4427951;28;656047;-66
2021/10/08 01:02:44;;;;;;;23.37;10.30;;;4.90;1.00;;;;;;4420836;28;657969;-66
2021/10/08 01:05:32;;;;;;;28.27;11.17;;;4.80;1.00;;;;;;4418405;28;656804;-66
2021/10/08 01:08:21;;;;;;;28.77;10.13;;;4.80;1.00;;;;;;4432672;28;656993;-66
2021/10/08 01:11:11;;;;;;;33.70;11.47;;;4.80;1.00;;;;;;4401721;28;657069;-67
2021/10/08 01:14:03;;;;;;;29.73;10.13;;;4.80;1.00;;;;;;4411825;28;657418;-65
2021/10/08 01:16:52;;;;;;;31.07;10.67;;;4.70;1.00;;;;;;4406663;28;656191;-66
2021/10/08 01:19:41;;;;;;;27.40;10.50;;;4.70;1.00;;;;;;4438991;28;656197;-66
2021/10/08 01:22:31;;;;;;;32.67;11.03;;;4.60;1.00;;;;;;4421987;28;656764;-66
2021/10/08 01:25:20;;;;;;;23.37;9.67;;;4.70;1.00;;;;;;4410254;28;656994;-66
2021/10/08 01:28:08;;;;;;;27.73;10.57;;;4.60;1.00;;;;;;4418896;28;656145;-66
2021/10/08 01:30:56;;;;;;;22.45;10.18;;;4.60;1.00;;;;;;4423762;28;656598;-67
2021/10/08 01:33:45;;;;;;;24.63;10.17;;;4.50;1.00;;;;;;4438241;28;656944;-66
2021/10/08 01:36:32;;;;;;;28.47;10.80;;;4.50;1.00;;;;;;4420617;28;657346;-65
2021/10/08 01:39:22;;;;;;;27.00;10.20;;;4.50;1.00;;;;;;4437094;28;656681;-66
2021/10/08 01:42:09;;;;;;;27.23;10.43;;;4.50;1.00;;;;;;4437535;28;656146;-66
2021/10/08 01:44:58;;;;;;;25.37;10.47;;;4.50;1.00;;;;;;4410442;28;658112;-67
2021/10/08 01:47:46;;;;;;;36.70;11.80;;;4.50;1.00;;;;;;4415353;28;656638;-66
2021/10/08 01:50:33;;;;;;;27.42;11.68;;;4.40;1.00;;;;;;4443064;28;657568;-66
2021/10/08 01:53:21;;;;;;;34.20;10.83;;;4.40;1.00;;;;;;4410568;28;657154;-67
2021/10/08 01:56:10;;;;;;;29.67;10.67;;;4.40;1.00;;;;;;4429302;28;656907;-66
2021/10/08 01:58:59;;;;;;;34.17;10.93;;;4.40;1.00;;;;;;4405932;28;657651;-66
2021/10/08 02:01:46;;;;;;;27.73;11.27;;;4.30;1.00;;;;;;4419237;28;656497;-66
2021/10/08 02:04:34;;;;;;;33.90;11.03;;;4.30;1.00;;;;;;4436925;28;658134;-67
2021/10/08 02:07:23;;;;;;;27.40;10.57;;;4.30;1.00;;;;;;4423009;28;656776;-66
2021/10/08 02:10:12;;;;;;;26.40;11.83;;;4.20;1.00;;;;;;4426748;28;656228;-67
2021/10/08 02:13:03;;;;;;;36.03;11.70;;;4.20;1.00;;;;;;4439473;28;656238;-67
2021/10/08 02:15:52;;;;;;;25.27;11.60;;;4.20;1.00;;;;;;4425943;28;656985;-66
2021/10/08 02:18:41;;;;;;;30.60;11.63;;;4.20;1.00;;;;;;4443327;28;657809;-66
2021/10/08 02:21:30;;;;;;;32.83;10.53;;;4.10;1.00;;;;;;4421024;28;657790;-65
2021/10/08 02:24:19;;;;;;;32.90;10.97;;;4.10;1.00;;;;;;4411338;28;657990;-66
2021/10/08 02:27:08;;;;;;;28.00;11.93;;;4.00;1.00;;;;;;4417305;28;656259;-65
2021/10/08 02:29:59;;;;;;;40.33;12.00;;;4.00;1.00;;;;;;4419560;28;656469;-67
2021/10/08 02:32:47;;;;;;;34.03;11.47;;;4.00;1.00;;;;;;4423890;28;656816;-65
2021/10/08 02:35:35;;;;;;;21.63;10.13;;;4.00;1.00;;;;;;4438376;28;656545;-66
2021/10/08 02:38:25;;;;;;;27.33;11.23;;;3.90;1.00;;;;;;4399089;28;657971;-66
2021/10/08 02:41:15;;;;;;;25.47;10.77;;;3.90;1.00;;;;;;4381870;28;657539;-65
2021/10/08 02:44:04;;;;;;;32.30;12.10;;;3.90;1.00;;;;;;4388301;28;657450;-66
2021/10/08 02:46:55;;;;;;;30.93;13.40;;;3.90;1.00;;;;;;4397575;28;656385;-66
2021/10/08 02:49:43;;;;;;;39.17;12.83;;;3.80;1.00;;;;;;4381908;28;657957;-66
2021/10/08 02:52:32;;;;;;;34.93;15.57;;;3.80;2.10;;;;;;4398980;28;656831;-67
2021/10/08 02:55:20;;;;;;;39.50;13.27;;;3.70;1.00;;;;;;4410886;28;656201;-66
2021/10/08 02:58:07;;;;;;;31.60;13.17;;;3.70;5.90;;;;;;4401328;28;657910;-65
2021/10/08 03:00:55;;;;;;;47.23;14.83;;;3.70;11.10;;;;;;4428095;28;657244;-65
2021/10/08 03:03:43;;;;;;;36.07;13.53;;;3.70;13.60;;;;;;4399284;28;659003;-65
2021/10/08 03:06:31;;;;;;;41.97;14.87;;;3.70;7.70;;;;;;4393733;28;658242;-66
2021/10/08 03:09:18;;;;;;;54.63;16.70;;;3.60;9.90;;;;;;4413438;28;657849;-66
2021/10/08 03:12:06;;;;;;;41.23;16.77;;;3.60;14.60;;;;;;4391277;28;656881;-66
2021/10/08 03:14:54;;;;;;;45.00;16.17;;;3.60;17.10;;;;;;4413264;28;658767;-66
2021/10/08 03:17:41;;;;;;;47.40;15.10;;;3.60;23.10;;;;;;4393583;28;657587;-66
2021/10/08 03:20:32;;;;;;;34.60;13.30;;;3.60;19.70;;;;;;4407809;28;658990;-66
2021/10/08 03:23:19;;;;;;;31.43;12.17;;;3.60;20.30;;;;;;4387885;28;657807;-65
2021/10/08 03:26:07;;;;;;;38.37;13.33;;;3.50;24.00;;;;;;4395950;28;657652;-66
2021/10/08 03:28:54;;;;;;;33.63;13.27;;;3.50;25.70;;;;;;4428039;28;657859;-65
2021/10/08 03:31:41;;;;;;;27.63;11.80;;;3.50;30.00;;;;;;4407630;28;657514;-66
2021/10/08 03:34:29;;;;;;;33.53;10.97;;;3.50;32.00;;;;;;4427719;28;657567;-66
2021/10/08 03:37:22;;;;;;;51.87;13.47;;;3.50;32.90;;;;;;4405381;28;657703;-66
2021/10/08 03:40:15;;;;;;;32.77;12.43;;;3.50;36.80;;;;;;4399820;28;658056;-65
2021/10/08 03:43:03;;;;;;;28.90;10.43;;;3.50;38.90;;;;;;4380591;28;658567;-66
2021/10/08 03:45:53;;;;;;;31.20;11.43;;;3.40;40.20;;;;;;4420430;28;657744;-67
2021/10/08 03:49:12;;;;;;;35.30;10.90;;;3.40;43.80;;;;;;4411737;28;657722;-66
2021/10/08 03:51:59;;;;;;;31.33;11.20;;;3.40;52.40;;;;;;4401132;28;658117;-66
2021/10/08 03:54:48;;;;;;;32.53;12.75;;;3.40;66.20;;;;;;4402729;28;657409;-65
2021/10/08 03:57:35;;;;;;;44.95;13.15;;;3.40;73.00;;;;;;4417375;28;657621;-67
2021/10/08 04:00:23;;;;;;;33.50;12.90;;;3.40;72.90;;;;;;4437378;28;658719;-66
2021/10/08 04:03:10;;;;;;;31.60;12.80;;;3.40;71.40;;;;;;4421099;28;657783;-67
2021/10/08 04:05:58;;;;;;;29.03;12.27;;;3.40;75.30;;;;;;4444390;28;658921;-66
2021/10/08 04:08:46;;;;;;;50.33;14.63;;;3.40;80.40;;;;;;4417342;28;657492;-67
2021/10/08 04:11:35;;;;;;;60.67;22.70;;;3.40;77.70;;;;;;4443904;28;658783;-66
2021/10/08 04:14:23;;;;;;;48.07;21.37;;;3.40;81.60;;;;;;4419796;28;659367;-66
2021/10/08 04:17:11;;;;;;;46.53;17.40;;;3.30;84.40;;;;;;4419470;28;658027;-67
2021/10/08 04:19:58;;;;;;;52.67;21.87;;;3.40;88.60;;;;;;4439034;28;658102;-66
2021/10/08 04:22:46;;;;;;;55.87;22.40;;;3.30;78.80;;;;;;4419905;28;659313;-67
2021/10/08 04:25:33;;;;;;;46.50;21.97;;;3.30;85.90;;;;;;4445146;28;658135;-66
2021/10/08 04:28:22;;;;;;;44.97;16.43;;;3.30;80.20;;;;;;4416652;28;657439;-65
2021/10/08 04:31:10;;;;;;;35.13;13.50;;;3.30;85.70;;;;;;4419418;28;658138;-65
2021/10/08 04:33:57;;;;;;;31.47;13.90;;;3.20;89.20;;;;;;4400799;28;659049;-66
2021/10/08 04:36:45;;;;;;;39.37;13.33;;;3.20;92.70;;;;;;4426658;28;658670;-66
2021/10/08 04:39:32;;;;;;;36.73;13.87;;;3.20;93.80;;;;;;4407248;28;659606;-66
2021/10/08 04:42:20;;;;;;;38.50;14.33;;;3.20;91.80;;;;;;4420677;28;658426;-65
2021/10/08 04:45:33;;;;;;;33.93;13.33;;;3.20;93.90;;;;;;4417066;28;659312;-66
2021/10/08 04:48:21;;;;;;;34.07;14.43;;;3.20;92.90;;;;;;4381141;28;657545;-65
2021/10/08 04:51:08;;;;;;;38.70;16.17;;;3.20;95.00;;;;;;4446377;28;658355;-65
2021/10/08 04:53:56;;;;;;;42.87;19.57;;;3.20;99.20;;;;;;4425376;28;657593;-67
2021/10/08 04:56:43;;;;;;;74.60;27.97;;;3.20;97.10;;;;;;4445373;28;659104;-65
2021/10/08 04:59:31;;;;;;;67.93;20.73;;;3.20;98.80;;;;;;4425084;28;658090;-66
2021/10/08 05:02:20;;;;;;;58.47;22.83;;;3.20;99.90;;;;;;4440098;28;657203;-66
2021/10/08 05:05:08;;;;;;;72.20;28.70;;;3.30;99.90;;;;;;4404706;28;659551;-66
2021/10/08 05:07:59;;;;;;;356.67;93.90;;;3.30;99.90;;;;;;4419856;28;657374;-67
2021/10/08 05:10:47;;;;;;;79.27;27.70;;;3.30;99.90;;;;;;4422408;28;658651;-65
2021/10/08 05:13:34;;;;;;;269.53;79.87;;;3.40;99.90;;;;;;4434048;28;657649;-66
2021/10/08 05:16:22;;;;;;;309.73;76.03;;;3.40;99.90;;;;;;4411907;28;658524;-66
2021/10/08 05:19:11;;;;;;;132.33;39.20;;;3.40;98.90;;;;;;4431163;28;658857;-66
2021/10/08 05:21:58;;;;;;;105.13;33.87;;;3.40;98.00;;;;;;4405438;28;659009;-65
2021/10/08 05:24:46;;;;;;;106.87;36.23;;;3.50;95.40;;;;;;4411175;28;658550;-66
2021/10/08 05:27:33;;;;;;;52.23;20.17;;;3.60;83.50;;;;;;4431899;28;660182;-66
2021/10/08 05:30:21;;;;;;;46.43;16.13;;;3.60;79.70;;;;;;4401346;28;657794;-66
2021/10/08 05:33:08;;;;;;;50.05;18.27;;;3.70;68.10;;;;;;4412255;28;659793;-66
2021/10/08 05:35:57;;;;;;;40.73;16.50;;;3.70;57.30;;;;;;4407289;28;657700;-66
2021/10/08 05:38:45;;;;;;;102.87;32.67;;;3.80;47.80;;;;;;4442394;28;657852;-67
2021/10/08 05:41:33;;;;;;;39.83;14.90;;;3.80;40.30;;;;;;4428556;28;660062;-67
2021/10/08 05:44:20;;;;;;;36.13;14.03;;;3.90;28.20;;;;;;4393860;28;657610;-66
2021/10/08 05:47:08;;;;;;;51.27;18.30;;;4.00;22.70;;;;;;4429618;28;659158;-65
2021/10/08 05:49:55;;;;;;;45.43;15.73;;;4.10;15.40;;;;;;4424930;28;659142;-66
2021/10/08 05:52:44;;;;;;;41.07;14.00;;;4.20;8.70;;;;;;4443626;28;658359;-65
2021/10/08 05:55:32;;;;;;;33.50;12.90;;;4.30;1.80;;;;;;4417054;28;657294;-65
2021/10/08 05:58:19;;;;;;;36.30;11.77;;;4.30;1.00;;;;;;4439523;28;656431;-65
2021/10/08 06:01:07;;;;;;;31.03;11.93;;;4.40;1.00;;;;;;4418499;28;656705;-65
2021/10/08 06:03:54;;;;;;;36.77;12.07;;;4.50;1.00;;;;;;4444137;28;656406;-65
2021/10/08 06:06:42;;;;;;;28.73;11.87;;;4.50;1.00;;;;;;4425524;28;657449;-65
2021/10/08 06:09:31;;;;;;;31.17;11.27;;;4.60;1.00;;;;;;4443166;28;657798;-65
2021/10/08 06:12:19;;;;;;;32.57;11.83;;;4.70;1.00;;;;;;4421622;28;658239;-66
2021/10/08 06:15:07;;;;;;;32.17;11.40;;;4.80;1.00;;;;;;4420366;28;656676;-66
2021/10/08 06:17:55;;;;;;;33.80;11.60;;;4.90;1.00;;;;;;4423704;28;656854;-66
2021/10/08 06:20:43;;;;;;;31.77;11.37;;;5.00;1.00;;;;;;4427404;28;658178;-65
2021/10/08 06:23:31;;;;;;;31.97;11.13;;;5.10;1.00;;;;;;4406283;28;656447;-66
2021/10/08 06:26:20;;;;;;;25.30;11.37;;;5.20;1.00;;;;;;4427706;28;656822;-65
2021/10/08 06:29:08;;;;;;;34.17;12.70;;;5.30;1.00;;;;;;4406859;28;657026;-65
2021/10/08 06:31:55;;;;;;;39.90;11.97;;;5.40;1.00;;;;;;4406453;28;656504;-66
2021/10/08 06:34:43;;;;;;;38.20;12.17;;;5.50;1.00;;;;;;4426559;28;658017;-76
2021/10/08 06:37:32;;;;;;;33.20;11.85;;;5.60;1.00;;;;;;4392533;28;657246;-77
2021/10/08 06:40:20;;;;;;;32.17;12.07;;;5.70;1.00;;;;;;4418011;28;656612;-76
2021/10/08 06:43:09;;;;;;;28.70;12.33;;;5.80;1.00;;;;;;4379217;28;658394;-76
2021/10/08 06:45:59;;;;;;;29.17;10.48;;;5.90;1.00;;;;;;4413592;28;656660;-76
2021/10/08 06:48:48;;;;;;;30.50;11.77;;;6.00;1.00;;;;;;4409532;28;656649;-75
2021/10/08 06:51:36;;;;;;;36.17;11.77;;;6.20;1.00;;;;;;4402069;28;657248;-76
2021/10/08 06:54:25;;;;;;;30.33;11.70;;;6.30;1.00;;;;;;4377386;28;656373;-76
2021/10/08 06:57:13;;;;;;;36.60;11.47;;;6.40;1.00;;;;;;4356860;28;657081;-76
2021/10/08 07:00:06;;;;;;;29.25;11.85;;;6.50;1.00;;;;;;4404950;28;657096;-76
2021/10/08 07:02:54;;;;;;;26.00;10.67;;;6.60;1.00;;;;;;4398450;28;656932;-76
2021/10/08 07:05:43;;;;;;;32.90;11.47;;;6.70;1.00;;;;;;4372785;28;656503;-76
2021/10/08 07:08:31;;;;;;;32.07;12.30;;;6.80;1.00;;;;;;4368257;28;656261;-76
2021/10/08 07:11:21;;;;;;;35.20;11.97;;;6.90;1.00;;;;;;4395712;28;657399;-76
2021/10/08 07:14:09;;;;;;;34.30;11.57;;;7.00;1.00;;;;;;4356748;28;656902;-76
2021/10/08 07:16:59;;;;;;;37.13;10.93;;;7.10;1.00;;;;;;4380820;28;656693;-76
2021/10/08 07:19:51;;;;;;;25.47;11.00;;;7.20;1.00;;;;;;4370283;28;657278;-76
2021/10/08 07:22:40;;;;;;;27.73;11.30;;;7.30;1.00;;;;;;4391803;28;657528;-76
2021/10/08 07:25:29;;;;;;;40.85;11.43;;;7.50;1.00;;;;;;4365054;28;657999;-76
2021/10/08 07:28:18;;;;;;;26.80;10.07;;;7.60;1.00;;;;;;4373503;28;657362;-76
2021/10/08 07:31:09;;;;;;;29.10;10.17;;;7.90;1.00;;;;;;4378826;28;656786;-77
2021/10/08 07:33:58;;;;;;;25.17;10.07;;;7.90;1.00;;;;;;4394145;28;657231;-76
2021/10/08 07:36:46;;;;;;;30.13;10.97;;;8.00;1.00;;;;;;4399055;28;656558;-77
2021/10/08 07:39:34;;;;;;;38.63;11.27;;;8.10;1.00;;;;;;4415300;28;657322;-76
2021/10/08 07:42:31;;;;;;;25.87;10.40;;;8.10;1.00;;;;;;4381543;28;656869;-76
2021/10/08 07:45:19;;;;;;;28.57;10.03;;;8.20;1.00;;;;;;4371528;28;657735;-75
2021/10/08 07:48:07;;;;;;;25.90;9.33;;;8.40;1.00;;;;;;4391920;28;656918;-76
2021/10/08 07:50:56;;;;;;;35.65;10.52;;;8.60;1.00;;;;;;4410605;28;656135;-76
2021/10/08 07:53:44;;;;;;;27.40;10.10;;;8.70;1.00;;;;;;4362612;28;656918;-76
2021/10/08 07:56:33;;;;;;;31.60;11.00;;;8.90;1.00;;;;;;4393710;28;656672;-76
2021/10/08 07:59:21;;;;;;;27.17;10.40;;;9.10;1.00;;;;;;4402577;28;657611;-77
2021/10/08 08:02:09;;;;;;;30.27;10.07;;;9.30;1.00;;;;;;4344608;28;657528;-76
2021/10/08 08:04:58;;;;;;;28.20;10.47;;;9.40;1.00;;;;;;4390666;28;658399;-76
2021/10/08 08:07:50;;;;;;;32.67;10.53;;;9.60;1.00;;;;;;4399372;28;656495;-76
2021/10/08 08:10:38;;;;;;;22.67;9.90;;;9.80;1.00;;;;;;4378700;28;657992;-76
2021/10/08 08:13:27;;;;;;;31.97;10.30;;;10.00;1.00;;;;;;4395576;28;655472;-75
2021/10/08 08:16:21;;;;;;;23.33;10.52;;;10.20;1.00;;;;;;4389690;28;657450;-77
2021/10/08 08:19:11;;;;;;;25.90;9.67;;;10.40;1.00;;;;;;4369475;28;657961;-76
2021/10/08 08:21:59;;;;;;;22.67;9.70;;;10.70;1.00;;;;;;4366946;28;656680;-76
2021/10/08 08:24:50;;;;;;;27.37;10.40;;;10.90;1.00;;;;;;4383107;28;657300;-76
2021/10/08 08:27:38;;;;;;;28.63;9.63;;;11.10;1.00;;;;;;4337547;28;658180;-76
2021/10/08 08:30:27;;;;;;;37.10;9.43;;;11.30;1.00;;;;;;4396466;28;657370;-76
2021/10/08 08:33:15;;;;;;;27.83;9.33;;;11.50;1.00;;;;;;4407648;28;657713;-76
2021/10/08 08:36:03;;;;;;;29.80;9.03;;;11.70;1.00;;;;;;4379166;28;656999;-76
2021/10/08 08:38:51;;;;;;;26.77;9.43;;;11.90;1.00;;;;;;4354960;28;656501;-77
2021/10/08 08:41:44;;;;;;;35.80;9.20;;;12.00;1.00;;;;;;4382106;28;657521;-75
2021/10/08 08:44:32;;;;;;;31.00;8.77;;;12.30;1.00;;;;;;4383815;28;656687;-75
2021/10/08 08:47:20;;;;;;;25.67;9.03;;;12.40;1.00;;;;;;4421499;28;657911;-76
2021/10/08 08:50:17;;;;;;;29.27;9.37;;;12.70;1.00;;;;;;4384473;28;657489;-76
2021/10/08 08:53:04;;;;;;;28.53;8.73;;;12.90;1.00;;;;;;4411205;28;656187;-76
2021/10/08 08:55:53;;;;;;;26.30;9.03;;;12.90;1.00;;;;;;4390279;28;658108;-76
2021/10/08 08:58:42;;;;;;;24.37;8.93;;;13.20;1.00;;;;;;4395215;28;656715;-77
2021/10/08 09:01:30;;;;;;;24.27;8.47;;;13.30;1.00;;;;;;4392915;28;656358;-76
2021/10/08 09:04:19;;;;;;;20.77;8.00;;;13.50;1.00;;;;;;4336154;28;657499;-76
2021/10/08 09:07:13;;;;;;;27.70;8.70;;;13.60;1.00;;;;;;4385597;28;656986;-75
2021/10/08 09:10:14;;;;;;;28.93;8.67;;;13.90;1.00;;;;;;4372208;28;656460;-76
2021/10/08 09:13:02;;;;;;;24.87;8.83;;;13.90;1.00;;;;;;4411641;28;656702;-75
2021/10/08 09:15:52;;;;;;;25.13;7.82;;;14.00;1.00;;;;;;4423099;28;656436;-76
2021/10/08 09:18:41;;;;;;;25.23;8.20;;;14.10;1.00;;;;;;4401912;28;656788;-76
2021/10/08 09:21:33;;;;;;;24.27;8.13;;;14.10;1.00;;;;;;4394818;28;658053;-76
2021/10/08 09:24:26;;;;;;;22.93;7.30;;;14.20;1.00;;;;;;4367800;28;657027;-75
2021/10/08 09:27:15;;;;;;;30.60;7.43;;;14.40;1.00;;;;;;4393048;28;657032;-75
2021/10/08 09:30:03;;;;;;;21.40;7.47;;;14.40;1.00;;;;;;4400414;28;657720;-76
2021/10/08 09:32:54;;;;;;;26.27;8.27;;;14.30;1.00;;;;;;4403589;28;656403;-76
2021/10/08 09:35:42;;;;;;;19.33;7.90;;;14.40;1.00;;;;;;4410428;28;656296;-76
2021/10/08 09:38:33;;;;;;;25.60;7.90;;;14.40;1.00;;;;;;4423811;28;656472;-76
2021/10/08 09:41:21;;;;;;;20.47;7.63;;;14.50;1.00;;;;;;4415611;28;657237;-75
2021/10/08 09:44:09;;;;;;;24.53;8.03;;;14.70;1.00;;;;;;4406103;28;657835;-75
2021/10/08 09:47:09;;;;;;;21.90;6.83;;;14.50;1.00;;;;;;4399927;28;657174;-75
2021/10/08 09:50:09;;;;;;;19.53;7.03;;;14.40;1.00;;;;;;4420247;28;657503;-74
2021/10/08 09:53:10;;;;;;;21.23;6.90;;;14.50;1.00;;;;;;4410205;28;657661;-74
2021/10/08 09:55:58;;;;;;;23.80;7.47;;;14.50;1.00;;;;;;4405300;28;657253;-74
2021/10/08 09:58:53;;;;;;;22.23;7.70;;;14.80;1.00;;;;;;4400893;28;656456;-75
2021/10/08 10:01:42;;;;;;;36.10;8.13;;;14.90;1.00;;;;;;4387687;28;656588;-74
2021/10/08 10:04:44;;;;;;;22.97;7.47;;;15.10;1.00;;;;;;4423719;28;657905;-74
2021/10/08 10:07:33;;;;;;;17.57;7.17;;;15.40;1.00;;;;;;4378867;28;657495;-75
2021/10/08 10:10:21;;;;;;;21.67;8.00;;;15.50;1.00;;;;;;4399402;28;656631;-75
2021/10/08 10:13:10;;;;;;;16.90;7.03;;;15.60;1.00;;;;;;4444229;28;657090;-74
2021/10/08 10:15:58;;;;;;;19.80;7.07;;;15.70;1.00;;;;;;4391944;28;657274;-74
2021/10/08 10:18:48;;;;;;;25.08;7.57;;;15.90;1.00;;;;;;4407900;28;656679;-75
2021/10/08 10:21:36;;;;;;;19.23;7.00;;;15.80;1.00;;;;;;4420869;28;656649;-75
2021/10/08 10:24:25;;;;;;;22.57;7.80;;;15.70;1.00;;;;;;4430823;28;657972;-74
2021/10/08 10:27:14;;;;;;;19.77;6.90;;;15.70;1.00;;;;;;4410232;28;658096;-74
2021/10/08 10:30:04;;;;;;;24.87;7.47;;;15.90;1.00;;;;;;4395170;28;657341;-73
2021/10/08 10:32:52;;;;;;;20.90;7.30;;;16.00;1.00;;;;;;4398379;28;657559;-76
2021/10/08 10:35:47;;;;;;;22.67;8.60;;;16.10;1.00;;;;;;4426716;28;657606;-75
2021/10/08 10:38:36;;;;;;;19.03;7.33;;;16.20;1.00;;;;;;4391294;28;657438;-73
2021/10/08 10:41:26;;;;;;;24.77;8.30;;;16.40;1.00;;;;;;4414945;28;657667;-75
2021/10/08 10:44:17;;;;;;;22.10;7.90;;;16.50;1.00;;;;;;4358414;28;657415;-74
2021/10/08 10:47:14;;;;;;;22.63;7.97;;;16.70;1.00;;;;;;4409235;28;656796;-74
2021/10/08 10:50:12;;;;;;;18.83;8.13;;;16.60;1.00;;;;;;4381662;28;658010;-75
2021/10/08 10:53:00;;;;;;;25.52;7.07;;;16.70;1.00;;;;;;4405160;28;656037;-75
2021/10/08 10:55:48;;;;;;;20.23;7.03;;;16.50;1.00;;;;;;4395464;28;657605;-75
2021/10/08 10:58:37;;;;;;;25.80;7.63;;;16.60;1.00;;;;;;4410681;28;656781;-74
2021/10/08 11:04:27;;;;;;;23.80;8.30;;;16.80;1.00;;;;;;4394515;28;657287;-75
2021/10/08 11:07:16;;;;;;;31.00;8.50;;;17.50;1.00;;;;;;4425528;28;657006;-75
2021/10/08 11:10:21;;;;;;;28.63;7.80;;;17.80;1.00;;;;;;4397146;28;657200;-74
2021/10/08 11:13:29;;;;;;;22.80;8.40;;;17.60;1.00;;;;;;4407636;28;656370;-74
2021/10/08 11:16:30;;;;;;;24.57;8.37;;;17.50;1.00;;;;;;4389847;28;657153;-75
2021/10/08 11:19:38;;;;;;;21.63;8.77;;;17.00;1.00;;;;;;4401696;28;657264;-75
2021/10/08 11:22:43;;;;;;;27.20;8.30;;;17.40;1.00;;;;;;4387521;28;656777;-76
2021/10/08 11:25:33;;;;;;;22.27;8.23;;;17.30;1.00;;;;;;4413265;28;656843;-75
2021/10/08 11:28:28;;;;;;;20.33;8.10;;;17.40;1.00;;;;;;4406597;28;657170;-75
2021/10/08 11:31:18;;;;;;;21.47;7.87;;;17.60;1.00;;;;;;4408901;28;656436;-74
2021/10/08 11:34:13;;;;;;;23.63;7.53;;;17.60;1.00;;;;;;4411885;28;656909;-75
2021/10/08 11:37:01;;;;;;;20.77;8.20;;;17.70;1.00;;;;;;4384453;28;657161;-74
2021/10/08 11:39:49;;;;;;;24.97;8.80;;;17.80;1.00;;;;;;4428754;28;657294;-75
2021/10/08 11:42:40;;;;;;;19.13;7.50;;;17.50;1.00;;;;;;4420394;28;657033;-76
2021/10/08 11:45:34;;;;;;;18.03;7.70;;;17.70;1.00;;;;;;4398726;28;656851;-75
2021/10/08 11:48:25;;;;;;;22.57;7.93;;;18.20;1.00;;;;;;4376856;28;657786;-74
2021/10/08 11:51:13;;;;;;;16.10;7.17;;;18.20;1.00;;;;;;4395957;28;657401;-75
2021/10/08 11:54:03;;;;;;;16.93;7.73;;;18.20;1.00;;;;;;4420939;28;656942;-75
2021/10/08 11:57:01;;;;;;;28.08;8.27;;;18.50;1.00;;;;;;4413635;28;657203;-75
2021/10/08 11:59:58;;;;;;;20.47;7.40;;;18.50;1.00;;;;;;4410763;28;656971;-74
2021/10/08 12:03:02;;;;;;;22.50;7.63;;;18.80;1.00;;;;;;4392894;28;657725;-75
2021/10/08 12:05:52;;;;;;;23.50;7.60;;;19.00;1.00;;;;;;4419506;28;656361;-75
2021/10/08 12:08:41;;;;;;;19.53;7.53;;;19.20;1.00;;;;;;4419071;28;656763;-75
2021/10/08 12:11:29;;;;;;;17.33;7.40;;;19.10;1.00;;;;;;4430911;28;657376;-75
2021/10/08 12:14:19;;;;;;;25.90;7.70;;;19.10;1.00;;;;;;4409730;28;656591;-74
2021/10/08 12:17:07;;;;;;;17.13;6.83;;;19.20;1.00;;;;;;4408428;28;657934;-75
2021/10/08 12:19:54;;;;;;;20.70;7.30;;;19.00;1.00;;;;;;4429579;28;657920;-74
2021/10/08 12:22:43;;;;;;;21.73;6.97;;;19.20;1.00;;;;;;4401243;28;656985;-75
2021/10/08 12:25:31;;;;;;;16.33;6.73;;;19.10;1.00;;;;;;4400745;28;656671;-74
2021/10/08 12:28:20;;;;;;;20.30;6.83;;;19.20;1.00;;;;;;4429404;28;658160;-75
2021/10/08 12:31:10;;;;;;;18.10;6.77;;;19.10;1.00;;;;;;4397550;28;657800;-74
2021/10/08 12:33:58;;;;;;;18.43;6.90;;;19.10;1.00;;;;;;4404843;28;657206;-74
2021/10/08 12:36:46;;;;;;;21.87;6.37;;;18.90;1.00;;;;;;4416477;28;657334;-74
2021/10/08 12:39:36;;;;;;;19.10;6.17;;;19.10;1.00;;;;;;4426491;28;657540;-75
2021/10/08 12:42:26;;;;;;;19.70;6.83;;;19.20;1.00;;;;;;4404197;28;657222;-74
2021/10/08 12:45:23;;;;;;;17.83;5.97;;;19.60;1.00;;;;;;4385530;28;657834;-74
2021/10/08 12:48:15;;;;;;;18.47;6.57;;;19.90;1.00;;;;;;4395995;28;657469;-75
2021/10/08 12:51:03;;;;;;;20.77;6.10;;;20.10;1.00;;;;;;4398159;28;657115;-74
2021/10/08 12:54:14;;;;;;;16.30;6.03;;;20.30;1.00;;;;;;4410475;28;657111;-74
2021/10/08 12:57:11;;;;;;;17.63;6.40;;;20.40;1.00;;;;;;4389824;28;656989;-74
2021/10/08 12:59:59;;;;;;;23.30;6.83;;;20.70;1.00;;;;;;4399339;28;657752;-74
2021/10/08 13:02:47;;;;;;;27.33;6.87;;;20.80;1.00;;;;;;4388469;28;656886;-74
2021/10/08 13:05:42;;;;;;;20.00;6.27;;;21.10;1.00;;;;;;4418002;28;656924;-76
2021/10/08 13:08:32;;;;;;;24.27;7.30;;;21.50;1.00;;;;;;4399145;28;656895;-75
2021/10/08 13:11:19;;;;;;;20.57;6.37;;;22.20;1.00;;;;;;4401487;28;656866;-74
2021/10/08 13:14:18;;;;;;;13.83;6.00;;;22.70;1.00;;;;;;4395540;28;656632;-74
2021/10/08 13:17:16;;;;;;;21.17;5.53;;;23.20;1.00;;;;;;4406064;28;656775;-74
2021/10/08 13:20:04;;;;;;;14.53;5.30;;;23.40;1.00;;;;;;4406789;28;657873;-74
2021/10/08 13:22:52;;;;;;;17.23;5.57;;;24.00;1.00;;;;;;4402508;28;656593;-73
2021/10/08 13:25:42;;;;;;;16.33;5.73;;;24.00;1.00;;;;;;4434691;28;656176;-75
2021/10/08 13:28:31;;;;;;;16.57;6.33;;;24.50;1.00;;;;;;4403601;28;656626;-75
2021/10/08 13:31:20;;;;;;;16.07;6.10;;;25.10;1.00;;;;;;4435535;28;657916;-74
2021/10/08 13:34:08;;;;;;;21.53;5.93;;;25.50;1.00;;;;;;4407901;28;657207;-73
2021/10/08 13:36:56;;;;;;;22.17;6.57;;;26.40;1.00;;;;;;4383030;28;657069;-75
2021/10/08 13:39:43;;;;;;;18.17;6.27;;;26.20;1.00;;;;;;4410656;28;657431;-73
2021/10/08 13:42:31;;;;;;;18.07;5.73;;;26.70;1.00;;;;;;4394381;28;656688;-75
2021/10/08 13:45:21;;;;;;;18.50;6.27;;;26.50;1.00;;;;;;4402226;28;657696;-75
2021/10/08 13:48:13;;;;;;;21.23;6.20;;;26.40;1.00;;;;;;4377581;28;657510;-73
2021/10/08 13:51:01;;;;;;;16.53;5.90;;;26.80;1.00;;;;;;4366845;28;657609;-74
2021/10/08 13:53:48;;;;;;;23.33;6.13;;;26.80;1.00;;;;;;4417273;28;657744;-74
2021/10/08 13:56:37;;;;;;;13.70;5.03;;;27.90;1.00;;;;;;4383867;28;657136;-74
2021/10/08 13:59:26;;;;;;;18.30;5.60;;;28.00;1.00;;;;;;4395503;28;656325;-74
2021/10/08 14:02:18;;;;;;;17.87;5.83;;;28.80;1.00;;;;;;4373834;28;656573;-73
2021/10/08 14:05:15;;;;;;;14.47;5.60;;;29.10;1.00;;;;;;4354694;28;657226;-74
2021/10/08 14:11:11;;;;;;;19.30;6.23;;;29.10;1.00;;;;;;4374022;28;657157;-73
2021/10/08 14:13:58;;;;;;;17.00;6.13;;;29.20;13.50;;;;;;4360074;28;657223;-73
2021/10/08 14:16:46;;;;;;;20.88;5.88;;;29.70;17.00;;;;;;4394579;28;657260;-72
2021/10/08 14:19:34;;;;;;;19.27;5.90;;;29.60;16.90;;;;;;4408458;28;659184;-73
2021/10/08 14:22:26;;;;;;;18.45;6.40;;;29.60;21.60;;;;;;4378825;28;657646;-72
2021/10/08 14:25:14;;;;;;;18.70;6.97;;;30.00;22.50;;;;;;4391772;28;659253;-72
2021/10/08 14:28:02;;;;;;;23.05;6.70;;;29.70;20.60;;;;;;4376617;28;657614;-73
2021/10/08 14:30:49;;;;;;;22.00;6.32;;;29.60;20.60;;;;;;4409284;28;658548;-72
2021/10/08 14:33:37;;;;;;;19.45;6.30;;;29.70;20.60;;;;;;4391014;28;657644;-72
2021/10/08 14:36:25;;;;;;;19.15;6.05;;;29.80;20.80;;;;;;4418558;28;657823;-72